Time;durP1;ratioP1;P1;durP2;ratioP2;P2;SDS_P1;SDS_P2;PMS_P1;PMS_P2;Temp;Humidity;BMP_temperature;BMP_pressure;BME280_temperature;BME280_humidity;BME280_pressure;Samples;Min_cycle;Max_cycle;Signal;HPM_P1;HPM_P2
2021/06/02 00:00:37;;;;;;;;;;;10.00;99.90;;;;;;8309046;28;19951;-62
2021/06/02 00:04:45;;;;;;;;;;;10.00;99.90;;;;;;8326440;28;20321;-62
2021/06/02 00:08:46;;;;;;;;;;;9.70;99.90;;;;;;8326205;28;19917;-62
2021/06/02 00:12:47;;;;;;;;;;;9.70;99.90;;;;;;8326511;28;20315;-62
2021/06/02 00:16:48;;;;;;;;;;;9.60;99.90;;;;;;8326306;28;19921;-62
2021/06/02 00:20:48;;;;;;;;;;;9.70;99.90;;;;;;8326085;28;20380;-62
2021/06/02 00:24:49;;;;;;;;;;;9.50;99.90;;;;;;8326127;28;19910;-62
2021/06/02 00:28:49;;;;;;;;;;;9.70;99.90;;;;;;8325861;28;20407;-62
2021/06/02 00:32:50;;;;;;;;;;;9.50;99.90;;;;;;8307749;28;19916;-62
2021/06/02 00:36:50;;;;;;;;;;;9.20;99.90;;;;;;8308139;28;19920;-62
2021/06/02 00:40:51;;;;;;;;;;;9.10;99.90;;;;;;8325773;28;20008;-63
2021/06/02 00:44:52;;;;;;;;;;;8.80;99.90;;;;;;8308065;28;19913;-62
2021/06/02 00:48:53;;;;;;;;;;;8.80;99.90;;;;;;8307534;28;19913;-62
2021/06/02 00:52:53;;;;;;;;;;;8.80;99.90;;;;;;8325526;28;20026;-63
2021/06/02 00:56:55;;;;;;;;;;;8.60;99.90;;;;;;8325868;28;19972;-63
2021/06/02 01:00:56;;;;;;;;;;;8.60;99.90;;;;;;8325246;28;19909;-62
2021/06/02 01:04:57;;;;;;;;;;;8.80;99.90;;;;;;8325146;28;19909;-64
2021/06/02 01:08:58;;;;;;;;;;;9.20;99.90;;;;;;8327511;28;19913;-65
2021/06/02 01:12:59;;;;;;;;;;;8.80;99.90;;;;;;8332084;28;19916;-65
2021/06/02 01:17:01;;;;;;;;;;;8.80;99.90;;;;;;8331893;28;19913;-65
2021/06/02 01:21:02;;;;;;;;;;;8.70;99.90;;;;;;8331828;28;19924;-65
2021/06/02 01:25:25;;;;;;;;;;;8.70;99.90;;;;;;8332410;28;19909;-65
2021/06/02 01:29:27;;;;;;;;;;;8.30;99.90;;;;;;8331718;28;19919;-65
2021/06/02 01:33:28;;;;;;;;;;;8.10;99.90;;;;;;8330900;28;19915;-64
2021/06/02 01:38:03;;;;;;;;;;;8.10;99.90;;;;;;8331310;28;20002;-64
2021/06/02 01:42:07;;;;;;;;;;;8.00;99.90;;;;;;8256809;28;20007;-64
2021/06/02 01:46:21;;;;;;;;;;;7.80;99.90;;;;;;8331147;28;19916;-65
2021/06/02 01:50:25;;;;;;;;;;;7.80;99.90;;;;;;8309312;28;20003;-64
2021/06/02 01:54:37;;;;;;;;;;;8.00;99.90;;;;;;8300092;28;19913;-65
2021/06/02 01:58:53;;;;;;;;;;;7.70;99.90;;;;;;8297853;28;19918;-65
2021/06/02 02:03:03;;;;;;;;;;;7.70;99.90;;;;;;8301331;28;19909;-64
2021/06/02 02:07:09;;;;;;;;;;;7.50;99.90;;;;;;8330530;28;19916;-64
2021/06/02 02:11:26;;;;;;;;;;;7.50;99.90;;;;;;8312664;28;19909;-64
2021/06/02 02:15:41;;;;;;;;;;;7.80;99.90;;;;;;8312803;28;20011;-63
2021/06/02 02:20:20;;;;;;;;;;;7.60;99.90;;;;;;8329708;28;19917;-65
2021/06/02 02:24:32;;;;;;;;;;;7.40;99.90;;;;;;8196684;29;19977;-64
2021/06/02 02:28:44;;;;;;;;;;;7.20;99.90;;;;;;8264085;28;19916;-64
2021/06/02 02:32:53;;;;;;;;;;;7.40;99.90;;;;;;8328909;28;20465;-64
2021/06/02 02:36:58;;;;;;;;;;;7.30;99.90;;;;;;8329545;28;19995;-64
2021/06/02 02:41:17;;;;;;;;;;;7.10;99.90;;;;;;8329323;28;19916;-64
2021/06/02 02:45:20;;;;;;;;;;;6.90;99.90;;;;;;8329127;28;20298;-64
2021/06/02 02:49:44;;;;;;;;;;;6.70;99.90;;;;;;8328673;28;19975;-64
2021/06/02 02:53:50;;;;;;;;;;;6.80;99.90;;;;;;8328778;28;19909;-64
2021/06/02 02:57:59;;;;;;;;;;;7.00;99.90;;;;;;8327844;28;19919;-64
2021/06/02 03:02:18;;;;;;;;;;;6.90;99.90;;;;;;8328708;28;19916;-64
2021/06/02 03:06:27;;;;;;;;;;;6.70;99.90;;;;;;8328593;28;19917;-64
2021/06/02 03:10:30;;;;;;;;;;;6.50;99.90;;;;;;8328332;28;20287;-64
2021/06/02 03:14:50;;;;;;;;;;;6.70;99.90;;;;;;8328222;28;19909;-64
2021/06/02 03:19:12;;;;;;;;;;;6.60;99.90;;;;;;8327504;28;19913;-64
2021/06/02 03:23:16;;;;;;;;;;;6.50;99.90;;;;;;8327962;28;19916;-64
2021/06/02 03:27:39;;;;;;;;;;;6.30;99.90;;;;;;8310162;28;20377;-64
2021/06/02 03:31:40;;;;;;;;;;;6.60;99.90;;;;;;8301025;28;20641;-64
2021/06/02 03:36:05;;;;;;;;;;;6.70;99.90;;;;;;8327152;28;19909;-64
2021/06/02 03:40:08;;;;;;;;;;;6.90;99.90;;;;;;8309318;28;19913;-64
2021/06/02 03:44:27;;;;;;;;;;;6.70;99.90;;;;;;8327239;28;19936;-64
2021/06/02 03:48:34;;;;;;;;;;;6.70;99.90;;;;;;8326948;28;19916;-64
2021/06/02 03:52:44;;;;;;;;;;;6.90;99.90;;;;;;8327032;28;19909;-64
2021/06/02 03:56:47;;;;;;;;;;;6.80;99.90;;;;;;8326955;28;19920;-64
2021/06/02 04:00:52;;;;;;;;;;;7.00;99.90;;;;;;8326711;28;19940;-64
2021/06/02 04:05:11;;;;;;;;;;;7.20;99.90;;;;;;8326647;28;19913;-64
2021/06/02 04:09:12;;;;;;;;;;;7.20;99.90;;;;;;8326639;28;20307;-64
2021/06/02 04:13:31;;;;;;;;;;;7.20;99.90;;;;;;8326529;28;19956;-64
2021/06/02 04:17:33;;;;;;;;;;;7.30;99.90;;;;;;8345700;28;19920;-65
2021/06/02 04:21:35;;;;;;;;;;;7.60;99.90;;;;;;8359255;28;19913;-64
2021/06/02 04:25:36;;;;;;;;;;;7.80;99.90;;;;;;8359216;28;20366;-64
2021/06/02 04:29:37;;;;;;;;;;;7.80;99.90;;;;;;8358732;28;20000;-64
2021/06/02 04:33:39;;;;;;;;;;;8.00;99.90;;;;;;8348576;28;19969;-64
2021/06/02 04:37:39;;;;;;;;;;;8.20;99.90;;;;;;8326369;28;20019;-64
2021/06/02 04:41:40;;;;;;;;;;;8.50;99.90;;;;;;8337706;28;20401;-66
2021/06/02 04:45:48;;;;;;;;;;;8.70;99.90;;;;;;8341427;28;19924;-67
2021/06/02 04:50:07;;;;;;;;;;;9.00;99.90;;;;;;8340934;28;19916;-67
2021/06/02 04:54:23;;;;;;;;;;;9.40;99.90;;;;;;8326325;28;20404;-67
2021/06/02 04:58:23;;;;;;;;;;;9.80;99.90;;;;;;8325240;28;19921;-67
2021/06/02 05:02:30;;;;;;;;;;;11.00;99.90;;;;;;8310089;28;20411;-67
2021/06/02 05:06:49;;;;;;;;;;;11.90;99.90;;;;;;8333101;28;19924;-67
2021/06/02 05:10:49;;;;;;;;;;;12.00;99.90;;;;;;8357846;28;19909;-66
2021/06/02 05:15:09;;;;;;;;;;;12.10;99.90;;;;;;8354749;28;19920;-67
2021/06/02 05:20:03;;;;;;;;;;;12.20;99.90;;;;;;8342073;28;19921;-67
2021/06/02 05:24:13;;;;;;;;;;;12.70;99.90;;;;;;8349630;28;19931;-67
2021/06/02 05:28:14;;;;;;;;;;;13.10;99.90;;;;;;8354722;28;19921;-67
2021/06/02 05:32:17;;;;;;;;;;;13.40;99.90;;;;;;8333291;28;19971;-67
2021/06/02 05:36:37;;;;;;;;;;;13.70;99.90;;;;;;8319507;28;19970;-67
2021/06/02 05:40:40;;;;;;;;;;;13.60;99.90;;;;;;8335036;28;19959;-67
2021/06/02 05:45:00;;;;;;;;;;;13.80;99.90;;;;;;8323817;28;19913;-67
2021/06/02 05:49:09;;;;;;;;;;;14.00;99.90;;;;;;8318983;28;20379;-67
2021/06/02 05:53:15;;;;;;;;;;;14.00;99.90;;;;;;8357495;28;19999;-67
2021/06/02 05:57:35;;;;;;;;;;;14.10;99.90;;;;;;8342170;28;19917;-68
2021/06/02 06:01:54;;;;;;;;;;;14.40;99.90;;;;;;8327266;28;19921;-68
2021/06/02 06:05:57;;;;;;;;;;;14.80;99.90;;;;;;8324913;28;19940;-67
2021/06/02 06:10:18;;;;;;;;;;;15.10;99.90;;;;;;8312772;28;20499;-66
2021/06/02 06:14:37;;;;;;;;;;;15.20;99.90;;;;;;8307366;28;19960;-67
2021/06/02 06:18:44;;;;;;;;;;;15.50;99.90;;;;;;8310825;28;19998;-66
2021/06/02 06:22:48;;;;;;;;;;;15.70;99.90;;;;;;8324664;28;19917;-67
2021/06/02 06:26:54;;;;;;;;;;;15.80;99.90;;;;;;8361540;28;19913;-67
2021/06/02 06:30:56;;;;;;;;;;;15.70;99.90;;;;;;8316665;28;19920;-67
2021/06/02 06:34:58;;;;;;;;;;;15.70;99.90;;;;;;8325642;28;19913;-67
2021/06/02 06:39:04;;;;;;;;;;;15.60;99.90;;;;;;8338153;28;19923;-67
2021/06/02 06:43:06;;;;;;;;;;;15.60;99.90;;;;;;8337986;28;20370;-65
2021/06/02 06:47:07;;;;;;;;;;;15.80;99.90;;;;;;8337821;28;19913;-65
2021/06/02 06:51:09;;;;;;;;;;;15.90;99.90;;;;;;8341610;28;19992;-65
2021/06/02 06:55:10;;;;;;;;;;;15.80;99.90;;;;;;8303020;28;19919;-65
2021/06/02 06:59:11;;;;;;;;;;;16.10;99.90;;;;;;8323922;28;19917;-65
2021/06/02 07:03:14;;;;;;;;;;;16.20;99.90;;;;;;8327463;28;19909;-65
2021/06/02 07:07:16;;;;;;;;;;;16.30;99.90;;;;;;8359624;28;20019;-65
2021/06/02 07:11:18;;;;;;;;;;;16.40;99.90;;;;;;8343588;28;19908;-65
2021/06/02 07:15:20;;;;;;;;;;;16.50;99.90;;;;;;8361790;28;20386;-65
2021/06/02 07:19:21;;;;;;;;;;;16.60;99.90;;;;;;8343593;28;19927;-65
2021/06/02 07:23:21;;;;;;;;;;;16.90;99.90;;;;;;8342692;28;20302;-65
2021/06/02 07:27:22;;;;;;;;;;;17.10;99.90;;;;;;8361117;28;19971;-65
2021/06/02 07:31:22;;;;;;;;;;;17.00;99.90;;;;;;8360879;28;19909;-65
2021/06/02 07:35:23;;;;;;;;;;;17.20;99.90;;;;;;8337082;28;19917;-66
2021/06/02 07:39:23;;;;;;;;;;;17.60;99.90;;;;;;8323519;28;20439;-65
2021/06/02 07:43:24;;;;;;;;;;;17.90;99.90;;;;;;8335115;28;19952;-64
2021/06/02 07:47:25;;;;;;;;;;;17.70;99.90;;;;;;8342989;28;20023;-65
2021/06/02 07:51:25;;;;;;;;;;;17.90;99.90;;;;;;8360382;28;19913;-65
2021/06/02 07:55:26;;;;;;;;;;;17.90;99.90;;;;;;8333523;28;19913;-65
2021/06/02 07:59:26;;;;;;;;;;;17.90;99.90;;;;;;8326101;28;20318;-65
2021/06/02 08:03:27;;;;;;;;;;;18.20;99.90;;;;;;8311686;28;20570;-66
2021/06/02 08:07:27;;;;;;;;;;;18.50;99.90;;;;;;8356997;28;19923;-64
2021/06/02 08:11:28;;;;;;;;;;;18.90;99.90;;;;;;8360019;28;19908;-65
2021/06/02 08:15:28;;;;;;;;;;;19.10;99.90;;;;;;8358230;28;19920;-65
2021/06/02 08:19:29;;;;;;;;;;;19.20;99.90;;;;;;8359244;28;20018;-65
2021/06/02 08:23:30;;;;;;;;;;;19.40;99.90;;;;;;8359056;28;20560;-65
2021/06/02 08:27:30;;;;;;;;;;;19.70;99.90;;;;;;8359080;28;19921;-65
2021/06/02 08:31:31;;;;;;;;;;;19.80;99.90;;;;;;8359361;28;19909;-65
2021/06/02 08:35:31;;;;;;;;;;;20.10;99.90;;;;;;8316624;28;20368;-65
2021/06/02 08:39:33;;;;;;;;;;;20.20;99.50;;;;;;8308491;28;19917;-66
2021/06/02 08:43:34;;;;;;;;;;;20.30;99.90;;;;;;8326605;28;19910;-65
2021/06/02 08:47:34;;;;;;;;;;;20.10;99.90;;;;;;8326627;28;19963;-65
2021/06/02 08:51:35;;;;;;;;;;;20.30;99.90;;;;;;8326236;28;20012;-66
2021/06/02 08:55:38;;;;;;;;;;;20.30;99.40;;;;;;8340588;28;19995;-66
2021/06/02 08:59:38;;;;;;;;;;;20.70;99.90;;;;;;8340061;28;19966;-65
2021/06/02 09:03:39;;;;;;;;;;;20.80;98.40;;;;;;8349247;28;19913;-65
2021/06/02 09:07:40;;;;;;;;;;;20.60;98.20;;;;;;8325915;28;20294;-66
2021/06/02 09:11:43;;;;;;;;;;;20.70;96.80;;;;;;8326551;28;20329;-65
2021/06/02 09:15:44;;;;;;;;;;;20.60;97.20;;;;;;8326738;28;19921;-66
2021/06/02 09:19:46;;;;;;;;;;;21.10;96.00;;;;;;8339887;28;19993;-65
2021/06/02 09:23:46;;;;;;;;;;;21.10;94.60;;;;;;8341023;28;19927;-66
2021/06/02 09:27:49;;;;;;;;;;;21.50;97.60;;;;;;8358955;28;19909;-66
2021/06/02 09:31:50;;;;;;;;;;;22.00;93.00;;;;;;8341102;28;19912;-66
2021/06/02 09:35:50;;;;;;;;;;;22.20;92.40;;;;;;8347598;28;20442;-67
2021/06/02 09:39:50;;;;;;;;;;;22.30;85.70;;;;;;8318627;28;20322;-66
2021/06/02 09:43:51;;;;;;;;;;;22.40;75.80;;;;;;8349438;28;19912;-66
2021/06/02 09:47:55;;;;;;;;;;;22.40;71.20;;;;;;8334242;28;19920;-67
2021/06/02 09:51:56;;;;;;;;;;;22.60;72.30;;;;;;8347189;28;19921;-65
2021/06/02 09:55:57;;;;;;;;;;;22.90;81.10;;;;;;8343645;28;19959;-64
2021/06/02 09:59:58;;;;;;;;;;;22.80;75.80;;;;;;8322868;28;19927;-67
2021/06/02 10:04:02;;;;;;;;;;;22.60;81.10;;;;;;8331231;28;19909;-66
2021/06/02 10:08:03;;;;;;;;;;;22.50;70.90;;;;;;8342317;28;20648;-66
2021/06/02 10:12:07;;;;;;;;;;;22.70;70.70;;;;;;8347773;28;20369;-66
2021/06/02 10:16:09;;;;;;;;;;;22.90;69.50;;;;;;8340551;28;20026;-66
2021/06/02 10:20:10;;;;;;;;;;;23.10;67.30;;;;;;8324554;28;20282;-66
2021/06/02 10:24:11;;;;;;;;;;;23.40;66.90;;;;;;8313333;28;19916;-66
2021/06/02 10:28:13;;;;;;;;;;;23.70;67.20;;;;;;8330274;28;19948;-66
2021/06/02 10:32:14;;;;;;;;;;;23.80;63.50;;;;;;8329393;28;19992;-66
2021/06/02 10:36:15;;;;;;;;;;;23.90;67.10;;;;;;8345375;28;19924;-66
2021/06/02 10:40:19;;;;;;;;;;;24.20;62.70;;;;;;8320921;28;19917;-66
2021/06/02 10:44:22;;;;;;;;;;;24.00;67.70;;;;;;8330008;28;19909;-66
2021/06/02 10:48:38;;;;;;;;;;;24.20;59.70;;;;;;8338014;28;19913;-67
2021/06/02 10:52:40;;;;;;;;;;;24.30;65.80;;;;;;8344012;28;19913;-65
2021/06/02 10:56:59;;;;;;;;;;;24.30;59.20;;;;;;8329064;28;19917;-68
2021/06/02 11:01:06;;;;;;;;;;;24.60;59.20;;;;;;8336465;28;20379;-66
2021/06/02 11:05:07;;;;;;;;;;;24.80;59.20;;;;;;8325430;28;19917;-66
2021/06/02 11:09:08;;;;;;;;;;;25.20;59.50;;;;;;8323750;28;20294;-64
2021/06/02 11:13:09;;;;;;;;;;;25.40;61.70;;;;;;8342379;28;19916;-66
2021/06/02 11:17:13;;;;;;;;;;;25.20;53.60;;;;;;8342673;28;20283;-65
2021/06/02 11:21:14;;;;;;;;;;;24.60;56.20;;;;;;8345048;28;20432;-66
2021/06/02 11:25:21;;;;;;;;;;;25.30;56.90;;;;;;8335235;28;19913;-66
2021/06/02 11:29:22;;;;;;;;;;;25.60;54.40;;;;;;8317383;28;19916;-65
2021/06/02 11:33:30;;;;;;;;;;;26.70;55.20;;;;;;8333205;28;19921;-65
2021/06/02 11:37:35;;;;;;;;;;;28.20;51.20;;;;;;8333653;28;19921;-66
2021/06/02 11:41:39;;;;;;;;;;;29.70;49.50;;;;;;8337428;28;20383;-66
2021/06/02 11:45:43;;;;;;;;;;;30.90;48.50;;;;;;8339607;28;19913;-66
2021/06/02 11:49:44;;;;;;;;;;;31.60;41.40;;;;;;8335234;28;19912;-66
2021/06/02 11:53:44;;;;;;;;;;;31.40;43.70;;;;;;8330329;28;19956;-66
2021/06/02 11:57:46;;;;;;;;;;;29.80;44.80;;;;;;8311507;28;19920;-66
2021/06/02 12:01:46;;;;;;;;;;;28.80;45.70;;;;;;8328106;28;19916;-66
2021/06/02 12:05:49;;;;;;;;;;;28.00;48.60;;;;;;8333906;28;19978;-66
2021/06/02 12:09:50;;;;;;;;;;;27.40;46.90;;;;;;8348353;28;20518;-66
2021/06/02 12:13:51;;;;;;;;;;;26.90;48.70;;;;;;8341336;28;19913;-66
2021/06/02 12:17:52;;;;;;;;;;;27.00;49.00;;;;;;8337373;28;19917;-67
2021/06/02 12:21:52;;;;;;;;;;;27.60;50.20;;;;;;8335537;28;20389;-65
2021/06/02 12:25:53;;;;;;;;;;;27.90;48.60;;;;;;8330879;28;19913;-66
2021/06/02 12:30:06;;;;;;;;;;;28.40;46.30;;;;;;8337663;28;19956;-65
2021/06/02 12:34:14;;;;;;;;;;;27.70;50.70;;;;;;8325599;28;19917;-67
2021/06/02 12:38:17;;;;;;;;;;;28.30;48.00;;;;;;8340265;28;19928;-66
2021/06/02 12:42:17;;;;;;;;;;;29.00;43.90;;;;;;8337384;28;19974;-65
2021/06/02 12:46:18;;;;;;;;;;;30.50;43.40;;;;;;8325544;28;19921;-65
2021/06/02 12:50:37;;;;;;;;;;;33.60;38.50;;;;;;8336911;28;19913;-66
2021/06/02 12:54:40;;;;;;;;;;;36.20;33.80;;;;;;8338713;28;20013;-65
2021/06/02 12:58:41;;;;;;;;;;;38.00;32.80;;;;;;8330184;28;19961;-66
2021/06/02 13:02:42;;;;;;;;;;;37.80;33.60;;;;;;8314263;28;19946;-66
2021/06/02 13:06:52;;;;;;;;;;;39.70;29.30;;;;;;8340475;28;19917;-67
2021/06/02 13:10:53;;;;;;;;;;;39.80;29.40;;;;;;8345298;28;19917;-67
2021/06/02 13:14:53;;;;;;;;;;;40.00;28.00;;;;;;8343946;28;20460;-66
2021/06/02 13:18:54;;;;;;;;;;;39.90;29.90;;;;;;8339409;28;19928;-66
2021/06/02 13:23:10;;;;;;;;;;;39.10;30.70;;;;;;8319580;28;20008;-66
2021/06/02 13:27:14;;;;;;;;;;;38.90;28.80;;;;;;8334209;28;19913;-66
2021/06/02 13:31:15;;;;;;;;;;;38.00;29.10;;;;;;8345129;28;19924;-67
2021/06/02 13:35:17;;;;;;;;;;;39.80;28.90;;;;;;8335655;28;19917;-67
2021/06/02 13:39:19;;;;;;;;;;;39.60;27.40;;;;;;8320405;28;19999;-66
2021/06/02 13:43:20;;;;;;;;;;;41.70;27.20;;;;;;8341344;28;19963;-66
2021/06/02 13:47:28;;;;;;;;;;;42.60;25.80;;;;;;8326046;28;19913;-66
2021/06/02 13:51:43;;;;;;;;;;;42.70;26.40;;;;;;8335512;28;19935;-66
2021/06/02 13:55:53;;;;;;;;;;;41.90;25.70;;;;;;8345935;28;19912;-66
2021/06/02 13:59:55;;;;;;;;;;;41.00;29.50;;;;;;8353817;28;19982;-67
2021/06/02 14:03:56;;;;;;;;;;;44.30;26.50;;;;;;8336020;28;19917;-66
2021/06/02 14:07:56;;;;;;;;;;;43.40;25.70;;;;;;8345920;28;20544;-66
2021/06/02 14:11:57;;;;;;;;;;;40.90;28.20;;;;;;8340382;28;20375;-67
2021/06/02 14:15:58;;;;;;;;;;;43.80;26.80;;;;;;8319311;28;19913;-67
2021/06/02 14:19:58;;;;;;;;;;;44.80;26.30;;;;;;8333336;28;19918;-67
2021/06/02 14:23:59;;;;;;;;;;;44.60;25.40;;;;;;8335461;28;19924;-66
2021/06/02 14:28:00;;;;;;;;;;;43.20;24.20;;;;;;8331041;28;19918;-67
2021/06/02 14:32:01;;;;;;;;;;;40.80;27.60;;;;;;8343547;28;19964;-66
2021/06/02 14:36:01;;;;;;;;;;;39.90;28.70;;;;;;8336874;28;19959;-66
2021/06/02 14:40:02;;;;;;;;;;;37.90;30.00;;;;;;8343733;28;19917;-67
2021/06/02 14:44:03;;;;;;;;;;;39.10;28.70;;;;;;8345142;28;19915;-66
2021/06/02 14:48:04;;;;;;;;;;;38.30;26.90;;;;;;8350461;28;19990;-67
2021/06/02 14:52:05;;;;;;;;;;;37.30;28.00;;;;;;8330541;28;19944;-67
2021/06/02 14:56:06;;;;;;;;;;;37.40;29.00;;;;;;8356837;28;19923;-67
2021/06/02 15:00:07;;;;;;;;;;;38.90;28.60;;;;;;8347059;28;19917;-67
2021/06/02 15:04:07;;;;;;;;;;;38.90;27.00;;;;;;8342436;28;19913;-66
2021/06/02 15:08:08;;;;;;;;;;;37.80;29.50;;;;;;8323515;28;20011;-66
2021/06/02 15:12:10;;;;;;;;;;;37.90;28.40;;;;;;8323468;28;19952;-66
2021/06/02 15:16:11;;;;;;;;;;;38.40;28.10;;;;;;8328426;28;19947;-68
2021/06/02 15:20:13;;;;;;;;;;;39.80;26.80;;;;;;8327652;28;19920;-68
2021/06/02 15:24:13;;;;;;;;;;;39.10;27.00;;;;;;8340563;28;19959;-69
2021/06/02 15:28:16;;;;;;;;;;;40.00;26.10;;;;;;8337297;28;20358;-68
2021/06/02 15:32:18;;;;;;;;;;;41.30;27.60;;;;;;8326265;28;19920;-68
2021/06/02 15:36:19;;;;;;;;;;;43.70;25.60;;;;;;8358101;28;20582;-69
2021/06/02 15:40:21;;;;;;;;;;;43.80;26.00;;;;;;8330165;28;19920;-67
2021/06/02 15:44:22;;;;;;;;;;;43.60;25.70;;;;;;8328348;28;19913;-69
2021/06/02 15:48:23;;;;;;;;;;;42.30;26.70;;;;;;8320354;28;19921;-69
2021/06/02 15:52:33;;;;;;;;;;;43.90;25.00;;;;;;8341919;28;19947;-67
2021/06/02 15:56:36;;;;;;;;;;;45.60;24.40;;;;;;8352449;28;19917;-67
2021/06/02 16:00:39;;;;;;;;;;;46.80;23.40;;;;;;8334775;28;19924;-65
2021/06/02 16:04:40;;;;;;;;;;;46.20;22.70;;;;;;8307709;28;19913;-65
2021/06/02 16:08:41;;;;;;;;;;;44.50;23.80;;;;;;8325897;28;19944;-65
2021/06/02 16:12:42;;;;;;;;;;;44.70;24.50;;;;;;8339283;28;20338;-65
2021/06/02 16:16:42;;;;;;;;;;;45.30;23.40;;;;;;8316503;28;19921;-65
2021/06/02 16:20:43;;;;;;;;;;;44.60;24.80;;;;;;8350043;28;19909;-65
2021/06/02 16:24:43;;;;;;;;;;;45.90;23.80;;;;;;8326775;28;19992;-65
2021/06/02 16:28:47;;;;;;;;;;;46.50;21.90;;;;;;8326382;28;19959;-65
2021/06/02 16:32:47;;;;;;;;;;;45.70;23.20;;;;;;8326438;28;19909;-65
2021/06/02 16:36:49;;;;;;;;;;;45.40;22.40;;;;;;8326529;28;20287;-66
2021/06/02 16:40:50;;;;;;;;;;;41.40;26.00;;;;;;8307984;28;19909;-66
2021/06/02 16:44:50;;;;;;;;;;;39.70;28.90;;;;;;8326190;28;19924;-67
2021/06/02 16:48:51;;;;;;;;;;;42.00;25.90;;;;;;8326015;28;19919;-67
2021/06/02 16:52:52;;;;;;;;;;;43.00;25.40;;;;;;8324875;28;19916;-66
2021/06/02 16:56:56;;;;;;;;;;;43.00;23.80;;;;;;8307458;28;20016;-66
2021/06/02 17:00:57;;;;;;;;;;;41.40;25.00;;;;;;8325109;28;20000;-66
2021/06/02 17:04:58;;;;;;;;;;;40.20;27.30;;;;;;8307289;28;20375;-66
2021/06/02 17:08:59;;;;;;;;;;;39.30;28.30;;;;;;8307714;28;19924;-66
2021/06/02 17:12:59;;;;;;;;;;;40.30;28.00;;;;;;8351658;28;20663;-67
2021/06/02 17:17:00;;;;;;;;;;;41.10;26.90;;;;;;8336412;28;19942;-66
2021/06/02 17:21:01;;;;;;;;;;;40.80;26.90;;;;;;8325040;28;19909;-64
2021/06/02 17:25:01;;;;;;;;;;;38.70;27.40;;;;;;8327084;28;20372;-66
2021/06/02 17:29:02;;;;;;;;;;;36.10;31.10;;;;;;8336191;28;20023;-66
2021/06/02 17:33:03;;;;;;;;;;;33.20;34.40;;;;;;8338490;28;19917;-66
2021/06/02 17:37:05;;;;;;;;;;;32.40;35.30;;;;;;8348218;28;19967;-66
2021/06/02 17:41:05;;;;;;;;;;;31.80;37.30;;;;;;8339630;28;19913;-66
2021/06/02 17:45:08;;;;;;;;;;;31.40;37.20;;;;;;8354550;28;19921;-65
2021/06/02 17:49:10;;;;;;;;;;;30.40;38.80;;;;;;8348873;28;19917;-65
2021/06/02 17:53:15;;;;;;;;;;;28.80;42.30;;;;;;8363653;28;20507;-65
2021/06/02 17:57:16;;;;;;;;;;;28.70;42.40;;;;;;8344797;28;19913;-65
2021/06/02 18:01:17;;;;;;;;;;;28.40;42.60;;;;;;8337935;28;20512;-66
2021/06/02 18:05:18;;;;;;;;;;;28.40;43.80;;;;;;8330182;28;19943;-65
2021/06/02 18:09:18;;;;;;;;;;;28.90;44.90;;;;;;8340340;28;19935;-65
2021/06/02 18:13:19;;;;;;;;;;;28.20;45.20;;;;;;8362359;28;19912;-65
2021/06/02 18:17:21;;;;;;;;;;;27.10;45.80;;;;;;8344831;28;20291;-65
2021/06/02 18:21:23;;;;;;;;;;;25.90;49.60;;;;;;8344156;28;19924;-65
2021/06/02 18:25:24;;;;;;;;;;;25.20;48.40;;;;;;8325987;28;19936;-64
2021/06/02 18:29:28;;;;;;;;;;;24.50;50.10;;;;;;8330117;28;20430;-64
2021/06/02 18:33:29;;;;;;;;;;;24.00;52.20;;;;;;8330357;28;19929;-65
2021/06/02 18:37:29;;;;;;;;;;;23.30;52.90;;;;;;8329852;28;19917;-64
2021/06/02 18:41:32;;;;;;;;;;;22.90;52.90;;;;;;8312169;28;19932;-64
2021/06/02 18:45:32;;;;;;;;;;;22.80;53.60;;;;;;8329977;28;20379;-64
2021/06/02 18:49:33;;;;;;;;;;;22.70;56.70;;;;;;8329866;28;19916;-65
2021/06/02 18:53:34;;;;;;;;;;;22.40;56.40;;;;;;8329898;28;19941;-64
2021/06/02 18:57:34;;;;;;;;;;;22.50;58.90;;;;;;8329462;28;19917;-65
2021/06/02 19:01:35;;;;;;;;;;;22.20;59.70;;;;;;8338276;28;20287;-65
2021/06/02 19:05:36;;;;;;;;;;;21.90;63.80;;;;;;8338747;28;20384;-64
2021/06/02 19:09:37;;;;;;;;;;;21.70;64.30;;;;;;8308194;28;19917;-63
2021/06/02 19:13:38;;;;;;;;;;;21.60;69.80;;;;;;8306173;28;19913;-64
2021/06/02 19:17:39;;;;;;;;;;;21.40;71.00;;;;;;8328747;28;20000;-63
2021/06/02 19:21:40;;;;;;;;;;;21.10;73.80;;;;;;8312832;28;19921;-64
2021/06/02 19:25:41;;;;;;;;;;;20.90;78.10;;;;;;8313028;28;19909;-63
2021/06/02 19:29:42;;;;;;;;;;;20.90;80.70;;;;;;8308537;28;19916;-64
2021/06/02 19:33:44;;;;;;;;;;;20.50;77.80;;;;;;8309514;28;19986;-64
2021/06/02 19:37:45;;;;;;;;;;;20.30;82.00;;;;;;8324277;28;19924;-64
2021/06/02 19:41:45;;;;;;;;;;;19.90;84.40;;;;;;8323516;28;19913;-64
2021/06/02 19:45:46;;;;;;;;;;;19.40;93.50;;;;;;8320094;28;19914;-64
2021/06/02 19:49:46;;;;;;;;;;;19.40;96.90;;;;;;8325136;28;19971;-62
2021/06/02 19:53:47;;;;;;;;;;;19.20;96.20;;;;;;8321234;28;20634;-62
2021/06/02 19:57:47;;;;;;;;;;;19.10;97.40;;;;;;8341580;28;19916;-63
2021/06/02 20:01:48;;;;;;;;;;;18.80;98.70;;;;;;8341880;28;20551;-62
2021/06/02 20:05:49;;;;;;;;;;;18.50;99.90;;;;;;8316252;28;21912;-62
2021/06/02 20:09:50;;;;;;;;;;;18.50;99.90;;;;;;8315620;28;19913;-64
2021/06/02 20:13:50;;;;;;;;;;;18.30;99.90;;;;;;8334427;28;19921;-63
2021/06/02 20:17:51;;;;;;;;;;;18.50;99.90;;;;;;8334319;28;19921;-64
2021/06/02 20:21:51;;;;;;;;;;;18.20;99.90;;;;;;8335608;28;19954;-64
2021/06/02 20:25:52;;;;;;;;;;;18.10;99.90;;;;;;8325555;28;19913;-64
2021/06/02 20:30:02;;;;;;;;;;;18.10;99.90;;;;;;8307299;28;19963;-64
2021/06/02 20:34:02;;;;;;;;;;;18.10;99.90;;;;;;8307513;28;19958;-64
2021/06/02 20:38:03;;;;;;;;;;;18.10;99.90;;;;;;8325060;28;19940;-64
2021/06/02 20:42:05;;;;;;;;;;;18.00;99.90;;;;;;8326204;28;19910;-64
2021/06/02 20:46:06;;;;;;;;;;;17.80;99.90;;;;;;8324961;28;19913;-64
2021/06/02 20:50:07;;;;;;;;;;;17.80;99.90;;;;;;8332103;28;19967;-63
2021/06/02 20:54:09;;;;;;;;;;;17.90;99.90;;;;;;8340548;28;20008;-63
2021/06/02 20:58:09;;;;;;;;;;;18.00;99.90;;;;;;8346633;28;19933;-63
2021/06/02 21:02:13;;;;;;;;;;;17.60;99.90;;;;;;8325358;28;19909;-64
2021/06/02 21:06:14;;;;;;;;;;;17.40;99.90;;;;;;8324946;28;19917;-63
2021/06/02 21:10:14;;;;;;;;;;;17.60;99.90;;;;;;8325324;28;19910;-63
2021/06/02 21:14:15;;;;;;;;;;;17.40;99.90;;;;;;8324822;28;20287;-63
2021/06/02 21:18:15;;;;;;;;;;;17.30;99.90;;;;;;8325106;28;19920;-63
2021/06/02 21:22:16;;;;;;;;;;;16.90;99.90;;;;;;8325405;28;19959;-62
2021/06/02 21:26:17;;;;;;;;;;;16.70;99.90;;;;;;8328100;28;19913;-63
2021/06/02 21:30:18;;;;;;;;;;;16.50;99.90;;;;;;8331548;28;19916;-63
2021/06/02 21:34:19;;;;;;;;;;;16.70;99.90;;;;;;8331553;28;19920;-62
2021/06/02 21:38:20;;;;;;;;;;;16.60;99.90;;;;;;8331410;28;19920;-63
2021/06/02 21:42:20;;;;;;;;;;;16.30;99.90;;;;;;8331811;28;19915;-63
2021/06/02 21:46:21;;;;;;;;;;;16.40;99.90;;;;;;8331541;28;19909;-63
2021/06/02 21:50:21;;;;;;;;;;;16.30;99.90;;;;;;8331033;28;19916;-62
2021/06/02 21:54:22;;;;;;;;;;;16.30;99.90;;;;;;8330933;28;20753;-63
2021/06/02 21:58:22;;;;;;;;;;;16.00;99.90;;;;;;8330776;28;19913;-63
2021/06/02 22:02:23;;;;;;;;;;;16.10;99.90;;;;;;8330949;28;19972;-62
2021/06/02 22:06:23;;;;;;;;;;;15.90;99.90;;;;;;8330342;28;19917;-63
2021/06/02 22:10:25;;;;;;;;;;;15.90;99.90;;;;;;8330635;28;20363;-63
2021/06/02 22:14:25;;;;;;;;;;;15.80;99.90;;;;;;8329982;28;20286;-62
2021/06/02 22:18:26;;;;;;;;;;;15.90;99.90;;;;;;8330099;28;19921;-62
2021/06/02 22:22:26;;;;;;;;;;;15.90;99.90;;;;;;8330270;28;19987;-63
2021/06/02 22:26:28;;;;;;;;;;;15.70;99.90;;;;;;8330105;28;19967;-63
2021/06/02 22:30:28;;;;;;;;;;;15.50;99.90;;;;;;8329686;28;19910;-63
2021/06/02 22:34:28;;;;;;;;;;;15.30;99.90;;;;;;8329487;28;20291;-63
2021/06/02 22:38:29;;;;;;;;;;;15.40;99.90;;;;;;8311257;28;19920;-63
2021/06/02 22:42:29;;;;;;;;;;;15.30;99.90;;;;;;8329464;28;19909;-63
2021/06/02 22:46:30;;;;;;;;;;;15.50;99.90;;;;;;8327732;28;19909;-63
2021/06/02 22:50:31;;;;;;;;;;;15.40;99.90;;;;;;8329017;28;20434;-63
2021/06/02 22:54:31;;;;;;;;;;;15.10;99.90;;;;;;8329209;28;19960;-63
2021/06/02 22:58:32;;;;;;;;;;;15.00;99.90;;;;;;8328775;28;19913;-63
2021/06/02 23:02:32;;;;;;;;;;;14.80;99.90;;;;;;8328855;28;19963;-63
2021/06/02 23:06:33;;;;;;;;;;;14.80;99.90;;;;;;8310843;28;19917;-64
2021/06/02 23:10:34;;;;;;;;;;;14.60;99.90;;;;;;8328733;28;20593;-64
2021/06/02 23:14:34;;;;;;;;;;;14.40;99.90;;;;;;8328610;28;19959;-64
2021/06/02 23:18:35;;;;;;;;;;;14.30;99.90;;;;;;8328590;28;19913;-64
2021/06/02 23:22:35;;;;;;;;;;;14.30;99.90;;;;;;8328743;28;20285;-64
2021/06/02 23:26:36;;;;;;;;;;;14.20;99.90;;;;;;8328431;28;20514;-64
2021/06/02 23:30:37;;;;;;;;;;;14.10;99.90;;;;;;8310146;28;19913;-63
2021/06/02 23:34:38;;;;;;;;;;;14.10;99.90;;;;;;8327876;28;19920;-63
2021/06/02 23:38:38;;;;;;;;;;;14.00;99.90;;;;;;8327666;28;19964;-63